Archival Weather

Gondia Arpt/Birsi

Gondia Arpt/Birsi, India (VAGD)

Report from: Thursday, April 25, 2024 10:00 AM UTC
Current time: Saturday, June 22, 2024 8:52 AM UTC

Current weather – Weather history – Daily summaries
Weather forecast

Present weatherHaze
Temperature38.0°C (100.4°F)
Heat index41.4°C (106.6°F)
Dew point20.0°C (68.0°F)
Winds 4 kts (2.1 m/s, 4.6 mph) Southwest (220°)
Visibility3.1 mi. (5 km)
Altimeter29.71 in.Hg (1006 mB)
Relative humidity35 %
Density altitude3,153 ft. (961 m)
Remarks No significant changes expected in the next two hours
Flight conditions Marginal Visual Meteorological Conditions
Raw dataVAGD 251000Z 22004KT 5000 HZ NSC 38/20 Q1006 NOSIG
An error has occurred. This application may no longer respond until reloaded. Reload 🗙